CheckWX is a tool to help pilots better visualize weather data.  It is not intended as a substitute for an official pre-flight weather briefing.

08:43:06 UTC

K0V4 METAR
Brookneal Airport
Brookneal, Virginia, USA
Current

28 mins ago

K0V4 230815Z AUTO 00000KT 10SM CLR 08/07 A3009 RMK AO1 T00750074
Observed
Apr-23 @ 08:15 UTC
Visibility
10 SM
Flight Rules
VFR
Cloud Levels
  • Clear skies
Temperature
C / 46°F
Dewpoint
C / 45°F
Humidity
93%
Altimeter
30.09" Hg
Pressure
1018.92 hPa
Previous

48 mins ago

K0V4 230755Z AUTO 00000KT 10SM CLR 09/08 A3009 RMK AO1 T00850083
Observed
Apr-23 @ 07:55 UTC
Visibility
10 SM
Flight Rules
VFR
Cloud Levels
  • Clear skies
Temperature
C / 48°F
Dewpoint
C / 46°F
Humidity
94%
Altimeter
30.09" Hg
Pressure
1018.92 hPa
Previous

1 hour ago

K0V4 230735Z AUTO 00000KT 10SM CLR 08/08 A3010 RMK AO1 T00830082
Observed
Apr-23 @ 07:35 UTC
Visibility
10 SM
Flight Rules
VFR
Cloud Levels
  • Clear skies
Temperature
C / 46°F
Dewpoint
C / 46°F
Humidity
100%
Altimeter
30.1" Hg
Pressure
1019.32 hPa